Boynton Beach, FL (33437)

8:29 AM EDT on September 16, 2014 (GMT -0400)
Valencia Pointe | Change Station
CLOSE
Current Station
Personal Weather Station
Location: Boynton Beach, FL
Elevation: 33 ft
Nearby Weather Stations

Elev 33 ft 26.51 °N, 80.16 °W | Updated 1 minute ago

Partly Cloudy
Partly Cloudy
79.0 °F
Feels Like 83 °F
N
2.0
Wind Variable Wind from NNW

Today
High -- | Low -- °F
--% Chance of Precip.
Yesterday
High -- | Low -- °F
Precip. -- in
7:06 AM 7:23 PM
Last Quarter, 46% visible
Pressure 30.08 in
Visibility 10.0 miles
Clouds Scattered Clouds 2200 ft
Scattered Clouds 5000 ft
Scattered Clouds 25000 ft
Heat Index 83 °F
Dew Point 76 °F
Humidity 91%
Rainfall 0.00 in
Snow Depth Not available.
UV 0 out of 12
Pollen 4.90 out of 12
Ozone Good
PM2.5 Moderate
Flu Activity Not available.
METAR KPBI 161153Z 00000KT 10SM SCT022CB SCT050 SCT250 26/24 A3008 RMK AO2 SLP184 CB NE-E SE MOV S VCSH SE T02560244 10261 20250 51007

More Conditions Fewer Conditions

Pressure 30.08 in
Visibility 10.0 miles
Clouds Scattered Clouds 2200 ft
Scattered Clouds 5000 ft
Scattered Clouds 25000 ft
Heat Index 83 °F
Dew Point 76 °F
Humidity 91%
Rainfall 0.00 in
Snow Depth Not available.
UV 0 out of 12
Pollen 4.90 out of 12
Ozone Good
PM2.5 Moderate
Flu Activity Not available.
METAR KPBI 161153Z 00000KT 10SM SCT022CB SCT050 SCT250 26/24 A3008 RMK AO2 SLP184 CB NE-E SE MOV S VCSH SE T02560244 10261 20250 51007

More Conditions Fewer Conditions

Nowcast | as of 6:59 am EDT on September 16, 2014

A few showers are observed over the nearshore waters of Palm Beach this morning. The overall movement is from north to south. As the afternoon heating increases sea breezes will develop, which are expected to trigger showers and thunderstorms especially over the interior.

×

10-Day Weather Forecast

Almanac

Astronomy

Sep. 16, 2014 Rise Set
Actual Time 7:06 AM EDT 7:23 PM EDT
Civil Twilight 6:43 AM EDT 7:47 PM EDT
Nautical Twilight 6:16 AM EDT 8:14 PM EDT
Astronomical Twilight 5:49 AM EDT 8:41 PM EDT
Moon 12:38 AM EDT 2:22 PM EDT
Length of Visible Light 13h 03m
Length of Day
12h 17m
Tomorrow will be 1m 33s shorter.
Last Quarter, 46% of the Moon is Illuminated
Today
Last Quarter
Sep 24
New
Oct 1
First Quarter
Oct 8
Full
Oct 15
Last Quarter

Today's Extremes

State Highs State Lows

Community

WunderPhotos

Upload Photos

1,753,754 photos uploaded!

Nearby

Air Quality

  Air Quality AQ Index Pollutant
Yesterday Good
PM2.5
Yesterday Good
OZONE
Current Moderate
PM2.5
Current Good
OZONE
Tuesday Good
OZONE
Tuesday Good
PM2.5
Wednesday Good
OZONE
Wednesday Good
PM2.5

Snow Depth

Station Depth Elevation
No new snow has been reported.

Earthquake Activity

City Distance Mag. Time & Date
No recent earthquake activity has been reported nearby.
Minimum magnitude displayed is 2.5.

Coastal Water Temperatures

Place Temperature
Lake Worth, FL 84.9 °F
Virginia Key, FL 84.9 °F

Nearby Weather Stations